Terminal Aerodrome Forecast
Issued by NWS

Home | Current Version | Previous Version | Text Only | Print | Product List | Glossary On
Versions: 1 2 3 4 5 6 7 8 9 10 11 12 13 14 15 16 17
000
FTUS44 KMAF 200500
TAFFST
TAF
KFST 200526Z 2006/2106 18010KT P6SM BKN250
     FM201600 17010G20KT P6SM SCT050 SCT250 PROB30 2019/2101
      VRB15G25KT 4SM TSRA BKN045CB
     FM210100 15012KT P6SM FEW045 SCT200=

USA.gov is the U.S. government's official web portal to all federal, state and local government web resources and services.